Terminal Aerodrome Forecast
Issued by NWS

Home | Current Version | Previous Version | Graphics & Text | Print | Product List | Glossary On
Versions: 1 2 3 4 5 6 7 8 9 10 11 12 13 14 15 16
159
FTUS43 KIWX 192326
TAFSBN
TAF
KSBN 192326Z 2000/2024 09003KT P6SM SCT030 BKN045
      TEMPO 2000/2002 BKN030
     FM200600 VRB03KT 1 1/2SM BR SCT015
     FM200900 00000KT 1/4SM FG OVC004
     FM201300 VRB03KT 1SM BR SCT004
     FM201500 17005KT P6SM FEW090=

USA.gov is the U.S. government's official web portal to all federal, state and local government web resources and services.